Time;durP1;ratioP1;P1;durP2;ratioP2;P2;SDS_P1;SDS_P2;PMS_P1;PMS_P2;Temp;Humidity;BMP_temperature;BMP_pressure;BME280_temperature;BME280_humidity;BME280_pressure;Samples;Min_cycle;Max_cycle;Signal;HPM_P1;HPM_P2
2022/11/10 00:00:10;;;;;;;0.20;0.10;;;17.50;99.90;;;;;;25505783;23;20381;-69
2022/11/10 00:10:14;;;;;;;0.20;0.00;;;17.20;99.90;;;;;;25503354;23;20461;-68
2022/11/10 00:20:19;;;;;;;0.20;0.00;;;17.30;99.90;;;;;;25525560;23;20385;-70
2022/11/10 00:30:23;;;;;;;0.20;0.00;;;17.00;99.90;;;;;;25533035;23;20376;-70
2022/11/10 00:40:28;;;;;;;0.20;0.10;;;17.30;99.90;;;;;;25504287;23;20389;-70
2022/11/10 00:50:32;;;;;;;0.20;0.00;;;16.80;99.90;;;;;;25533161;23;20824;-70
2022/11/10 01:00:37;;;;;;;0.20;0.00;;;16.90;99.90;;;;;;25532232;23;20400;-69
2022/11/10 01:10:41;;;;;;;0.20;0.00;;;16.40;99.90;;;;;;25540659;23;20377;-70
2022/11/10 01:20:51;;;;;;;0.20;0.00;;;16.50;99.90;;;;;;25513131;23;20377;-69
2022/11/10 01:30:58;;;;;;;0.20;0.00;;;16.30;99.90;;;;;;25539224;23;20388;-69
2022/11/10 01:41:08;;;;;;;0.20;0.00;;;16.10;99.90;;;;;;25515354;23;20856;-68
2022/11/10 01:51:18;;;;;;;0.20;0.10;;;15.60;99.90;;;;;;25538399;23;20385;-69
2022/11/10 02:01:24;;;;;;;0.20;0.10;;;15.20;99.90;;;;;;25536516;23;20373;-70
2022/11/10 02:11:28;;;;;;;0.20;0.10;;;15.10;99.90;;;;;;25536019;23;20474;-69
2022/11/10 02:21:33;;;;;;;0.20;0.10;;;15.00;99.90;;;;;;25536143;23;20378;-69
2022/11/10 02:31:37;;;;;;;0.20;0.10;;;15.10;99.90;;;;;;25538113;23;20381;-68
2022/11/10 02:41:42;;;;;;;0.20;0.10;;;15.00;99.90;;;;;;25534582;23;20385;-69
2022/11/10 02:51:46;;;;;;;0.20;0.00;;;15.00;99.90;;;;;;25537768;23;21221;-67
2022/11/10 03:01:51;;;;;;;0.20;0.00;;;14.80;99.90;;;;;;25535581;23;20412;-68
2022/11/10 03:11:55;;;;;;;0.20;0.07;;;14.80;99.90;;;;;;25536237;23;20380;-68
2022/11/10 03:22:00;;;;;;;0.20;0.00;;;14.80;99.90;;;;;;25535267;23;20377;-67
2022/11/10 03:32:04;;;;;;;0.20;0.00;;;14.80;99.90;;;;;;25483923;23;20373;-66
2022/11/10 03:42:09;;;;;;;0.20;0.00;;;14.80;99.90;;;;;;25534568;23;20377;-69
2022/11/10 03:52:12;;;;;;;0.20;0.03;;;14.90;99.90;;;;;;25535625;23;20357;-67
2022/11/10 04:02:17;;;;;;;0.20;0.00;;;14.90;99.90;;;;;;25534518;23;20369;-68
2022/11/10 04:33:05;;;;;;;0.20;0.10;;;15.10;99.90;;;;;;25531313;23;20369;-68
2022/11/10 04:43:10;;;;;;;0.20;0.00;;;15.10;99.90;;;;;;25542512;23;20377;-68
2022/11/10 04:53:14;;;;;;;0.20;0.00;;;15.20;99.90;;;;;;25540668;23;20361;-69
2022/11/10 05:03:19;;;;;;;0.20;0.00;;;15.20;99.90;;;;;;25514426;23;20380;-68
2022/11/10 05:13:24;;;;;;;0.20;0.10;;;15.20;99.90;;;;;;25539981;23;20384;-68
2022/11/10 05:23:38;;;;;;;0.20;0.10;;;15.20;99.90;;;;;;25541004;23;20392;-68
2022/11/10 05:33:41;;;;;;;0.20;0.00;;;15.30;99.90;;;;;;25539784;23;20369;-68
2022/11/10 05:43:47;;;;;;;0.20;0.10;;;15.50;99.90;;;;;;25486054;23;20385;-68
2022/11/10 05:53:51;;;;;;;0.20;0.10;;;15.10;99.90;;;;;;25510978;23;21334;-69
2022/11/10 06:03:56;;;;;;;0.20;0.03;;;15.30;99.90;;;;;;25535344;23;20400;-69
2022/11/10 06:14:00;;;;;;;0.20;0.00;;;14.80;99.90;;;;;;25537866;23;20373;-69
2022/11/10 06:24:06;;;;;;;0.20;0.10;;;14.90;99.90;;;;;;25536241;23;20392;-72
2022/11/10 06:34:09;;;;;;;0.20;0.10;;;15.10;99.90;;;;;;25510900;23;20385;-68
2022/11/10 06:44:14;;;;;;;0.20;0.10;;;15.20;99.90;;;;;;25532039;23;20378;-69
2022/11/10 06:54:18;;;;;;;0.20;0.00;;;15.30;99.90;;;;;;25529643;23;20366;-69
2022/11/10 07:04:24;;;;;;;0.20;0.07;;;15.20;99.90;;;;;;25523432;23;20389;-68
2022/11/10 07:14:27;;;;;;;0.20;0.10;;;15.50;99.90;;;;;;25503123;23;20396;-69
2022/11/10 07:24:33;;;;;;;0.20;0.00;;;15.30;99.90;;;;;;25505283;23;20396;-69
2022/11/10 07:34:36;;;;;;;0.20;0.10;;;15.20;99.90;;;;;;25532876;23;20376;-70
2022/11/10 07:44:42;;;;;;;0.20;0.10;;;15.10;99.90;;;;;;25529837;23;20385;-68
2022/11/10 07:54:46;;;;;;;0.20;0.10;;;14.90;99.90;;;;;;25531352;23;20369;-69
2022/11/10 08:04:51;;;;;;;0.20;0.00;;;14.90;99.90;;;;;;25503032;23;20426;-70
2022/11/10 08:14:55;;;;;;;0.20;0.00;;;15.00;99.90;;;;;;25528155;23;20385;-69
2022/11/10 08:25:00;;;;;;;0.20;0.00;;;15.40;99.90;;;;;;25504536;23;20381;-70
2022/11/10 08:35:04;;;;;;;0.20;0.00;;;16.20;99.90;;;;;;25528386;23;20369;-69
2022/11/10 08:45:10;;;;;;;0.20;0.00;;;16.90;99.90;;;;;;25507086;23;20384;-69
2022/11/10 08:55:14;;;;;;;0.20;0.10;;;17.50;99.90;;;;;;25528710;23;20448;-68
2022/11/10 09:05:19;;;;;;;0.20;0.00;;;18.10;99.90;;;;;;25506393;23;20521;-68
2022/11/10 09:15:22;;;;;;;0.20;0.00;;;18.30;99.90;;;;;;25531389;23;20384;-68
2022/11/10 09:25:28;;;;;;;0.20;0.00;;;18.50;99.90;;;;;;25534057;23;20393;-68
2022/11/10 09:35:32;;;;;;;0.20;0.00;;;18.60;99.90;;;;;;25506737;23;20381;-69
2022/11/10 09:45:42;;;;;;;0.20;0.00;;;18.80;99.90;;;;;;25510847;23;20385;-66
2022/11/10 09:55:50;;;;;;;0.20;0.00;;;19.00;99.90;;;;;;25534501;23;20381;-68
2022/11/10 10:06:04;;;;;;;0.20;0.00;;;19.20;99.90;;;;;;25533078;23;20388;-68
2022/11/10 10:16:16;;;;;;;0.20;0.10;;;19.50;99.90;;;;;;25498142;23;20380;-69
2022/11/10 10:26:27;;;;;;;0.20;0.03;;;20.10;99.90;;;;;;25528327;23;20991;-69
2022/11/10 10:36:31;;;;;;;0.20;0.00;;;20.50;99.90;;;;;;25530778;23;20357;-69
2022/11/10 10:46:45;;;;;;;0.20;0.00;;;21.30;99.90;;;;;;25528783;23;20381;-68
2022/11/10 10:56:49;;;;;;;0.20;0.00;;;21.80;99.90;;;;;;25507959;23;20384;-69
2022/11/10 11:06:59;;;;;;;0.20;0.00;;;21.80;99.90;;;;;;25531716;23;20401;-70
2022/11/10 11:17:11;;;;;;;0.20;0.00;;;22.20;99.90;;;;;;25532705;23;20380;-69
2022/11/10 11:27:21;;;;;;;0.20;0.10;;;22.40;99.90;;;;;;25506143;23;20789;-66
2022/11/10 11:37:36;;;;;;;0.20;0.00;;;22.70;99.90;;;;;;25528110;23;20503;-69
2022/11/10 11:47:57;;;;;;;0.20;0.00;;;22.90;99.90;;;;;;25528967;23;20381;-68
2022/11/10 11:58:21;;;;;;;0.20;0.00;;;22.50;99.90;;;;;;25533028;23;20380;-68
2022/11/10 12:08:35;;;;;;;0.20;0.10;;;22.70;99.90;;;;;;25504118;23;20984;-67
2022/11/10 12:18:47;;;;;;;0.20;0.00;;;22.50;99.90;;;;;;25521760;23;20399;-69
2022/11/10 12:29:03;;;;;;;0.20;0.00;;;22.60;99.90;;;;;;25524116;23;20400;-69
2022/11/10 12:39:17;;;;;;;0.20;0.00;;;21.60;99.90;;;;;;25502076;23;20381;-70
2022/11/10 12:49:28;;;;;;;0.20;0.10;;;21.40;99.90;;;;;;25530053;23;20365;-69
2022/11/10 12:59:35;;;;;;;0.20;0.00;;;21.00;99.90;;;;;;25507204;23;20413;-69
2022/11/10 13:09:42;;;;;;;0.20;0.10;;;20.70;99.90;;;;;;25534029;23;20369;-68
2022/11/10 13:19:53;;;;;;;0.20;0.07;;;20.50;99.90;;;;;;25536677;23;20382;-68
2022/11/10 13:30:09;;;;;;;0.20;0.00;;;20.60;99.90;;;;;;25536275;23;20381;-69
2022/11/10 13:40:38;;;;;;;0.20;0.10;;;20.80;99.90;;;;;;25522579;23;20388;-71
2022/11/10 13:50:55;;;;;;;0.20;0.00;;;20.40;99.90;;;;;;25506938;23;20361;-69
2022/11/10 14:01:21;;;;;;;0.20;0.10;;;21.50;99.90;;;;;;25509196;23;20391;-70
2022/11/10 14:11:34;;;;;;;0.20;0.00;;;22.50;99.90;;;;;;25499766;23;20376;-69
2022/11/10 14:21:43;;;;;;;0.20;0.00;;;23.60;99.90;;;;;;25534335;23;20381;-69
2022/11/10 14:31:48;;;;;;;0.20;0.00;;;23.20;99.90;;;;;;25529919;23;20369;-68
2022/11/10 14:41:52;;;;;;;0.20;0.00;;;22.30;99.90;;;;;;25527942;23;20370;-68
2022/11/10 14:52:00;;;;;;;0.20;0.10;;;20.90;99.90;;;;;;25534811;23;20376;-69
2022/11/10 15:02:04;;;;;;;0.20;0.00;;;20.00;99.90;;;;;;25530815;23;20400;-69
2022/11/10 15:12:20;;;;;;;0.20;0.00;;;19.80;99.90;;;;;;25505921;23;20377;-69
2022/11/10 15:22:31;;;;;;;0.20;0.00;;;20.10;99.90;;;;;;25481047;23;20396;-69
2022/11/10 15:32:47;;;;;;;0.20;0.00;;;20.00;99.90;;;;;;25531894;23;20365;-69
2022/11/10 15:43:09;;;;;;;0.20;0.00;;;19.70;99.90;;;;;;25528534;23;20369;-69
2022/11/10 15:53:16;;;;;;;0.20;0.00;;;19.60;99.90;;;;;;25529184;23;20361;-69
2022/11/10 16:03:21;;;;;;;0.20;0.00;;;19.10;99.90;;;;;;25503288;23;20380;-68
2022/11/10 16:13:29;;;;;;;0.20;0.00;;;19.00;99.90;;;;;;25480467;23;20429;-70
2022/11/10 16:23:33;;;;;;;0.20;0.00;;;19.10;99.90;;;;;;25501100;23;20385;-68
2022/11/10 16:33:38;;;;;;;0.20;0.00;;;18.60;99.90;;;;;;25532330;23;20369;-69
2022/11/10 16:43:42;;;;;;;0.20;0.00;;;18.60;99.90;;;;;;25508834;23;20401;-69
2022/11/10 16:53:47;;;;;;;0.20;0.10;;;18.60;99.90;;;;;;25536919;23;20380;-69
2022/11/10 17:03:53;;;;;;;0.20;0.00;;;18.40;99.90;;;;;;25507914;23;20391;-69
2022/11/10 17:13:58;;;;;;;0.20;0.00;;;18.30;99.90;;;;;;25536646;23;20392;-70
2022/11/10 17:24:08;;;;;;;0.20;0.00;;;17.90;99.90;;;;;;25533155;23;20392;-74
2022/11/10 17:34:13;;;;;;;0.20;0.00;;;17.60;99.90;;;;;;25534985;23;20369;-69
2022/11/10 17:44:18;;;;;;;0.20;0.00;;;17.50;99.90;;;;;;25534981;23;20392;-68
2022/11/10 17:54:24;;;;;;;0.20;0.00;;;17.40;99.90;;;;;;25534429;23;20376;-69
2022/11/10 18:04:28;;;;;;;0.20;0.00;;;17.30;99.90;;;;;;25529144;23;20393;-68
2022/11/10 18:14:33;;;;;;;0.20;0.00;;;17.30;99.90;;;;;;25529649;23;20460;-68
2022/11/10 18:24:37;;;;;;;0.20;0.10;;;17.40;99.90;;;;;;25508655;23;20377;-70
2022/11/10 18:34:42;;;;;;;0.20;0.00;;;17.30;99.90;;;;;;25533907;23;20380;-69
2022/11/10 18:44:45;;;;;;;0.20;0.00;;;17.30;99.90;;;;;;25534208;23;20380;-70
2022/11/10 18:54:51;;;;;;;0.20;0.00;;;17.30;99.90;;;;;;25531211;23;20361;-69
2022/11/10 19:04:54;;;;;;;0.20;0.03;;;17.30;99.90;;;;;;25529297;23;20403;-71
2022/11/10 19:15:00;;;;;;;0.20;0.10;;;17.10;99.90;;;;;;25528174;23;20429;-69
2022/11/10 19:25:04;;;;;;;0.20;0.00;;;16.90;99.90;;;;;;25527943;23;20388;-70
2022/11/10 19:35:13;;;;;;;0.20;0.00;;;16.70;99.90;;;;;;25501961;23;20403;-70
2022/11/10 19:45:17;;;;;;;0.20;0.00;;;16.50;99.90;;;;;;25527498;23;20373;-70
2022/11/10 19:55:22;;;;;;;0.20;0.10;;;16.10;99.90;;;;;;25529042;23;20381;-70
2022/11/10 20:05:26;;;;;;;0.20;0.10;;;15.70;99.90;;;;;;25525837;23;20377;-69
2022/11/10 20:15:31;;;;;;;0.20;0.10;;;15.50;99.90;;;;;;25503578;23;20373;-69
2022/11/10 20:25:35;;;;;;;0.20;0.10;;;15.30;99.90;;;;;;25497195;23;20388;-68
2022/11/10 20:35:44;;;;;;;0.20;0.10;;;15.20;99.90;;;;;;25499463;23;20365;-71
2022/11/10 20:45:47;;;;;;;0.20;0.10;;;15.00;99.90;;;;;;25500571;23;20413;-69
2022/11/10 20:55:59;;;;;;;0.20;0.10;;;15.00;99.90;;;;;;25525908;23;20373;-69
2022/11/10 21:06:04;;;;;;;0.20;0.10;;;14.90;99.90;;;;;;25526149;23;20444;-70
2022/11/10 21:16:10;;;;;;;0.20;0.00;;;14.90;99.90;;;;;;25526156;23;20388;-70
2022/11/10 21:26:14;;;;;;;0.20;0.10;;;15.00;99.90;;;;;;25532505;23;20377;-70
2022/11/10 21:36:19;;;;;;;0.20;0.10;;;14.90;99.90;;;;;;25528167;23;20377;-67
2022/11/10 21:46:23;;;;;;;0.20;0.00;;;14.90;99.90;;;;;;25530187;23;20404;-68
2022/11/10 21:56:28;;;;;;;0.20;0.10;;;14.70;99.90;;;;;;25532706;23;20813;-68
2022/11/10 22:27:13;;;;;;;0.20;0.10;;;14.50;99.90;;;;;;25505624;23;20465;-69
2022/11/10 22:37:18;;;;;;;0.20;0.10;;;14.10;99.90;;;;;;25529777;23;20361;-69
2022/11/10 22:47:22;;;;;;;0.20;0.10;;;14.20;99.90;;;;;;25531999;23;20392;-69
2022/11/10 22:57:27;;;;;;;0.20;0.00;;;14.10;99.90;;;;;;25509564;23;20372;-68
2022/11/10 23:07:31;;;;;;;0.20;0.10;;;14.00;99.90;;;;;;25535351;23;20369;-69
2022/11/10 23:17:36;;;;;;;0.20;0.10;;;14.00;99.90;;;;;;25536445;23;20373;-69
2022/11/10 23:27:40;;;;;;;0.20;0.10;;;14.20;99.90;;;;;;25534793;23;20392;-70
2022/11/10 23:37:45;;;;;;;0.20;0.10;;;14.80;99.90;;;;;;25508562;23;20377;-69
2022/11/10 23:47:49;;;;;;;0.20;0.10;;;14.50;99.90;;;;;;25535343;23;20388;-69
2022/11/10 23:57:54;;;;;;;0.20;0.00;;;15.00;99.90;;;;;;25535339;23;20898;-69
